Time;durP1;ratioP1;P1;durP2;ratioP2;P2;SDS_P1;SDS_P2;PMS_P1;PMS_P2;Temp;Humidity;BMP_temperature;BMP_pressure;BME280_temperature;BME280_humidity;BME280_pressure;Samples;Min_cycle;Max_cycle;Signal;HPM_P1;HPM_P2
2021/01/12 00:00:23;;;;;;;16.52;9.38;;;1.80;95.80;;;;;;5022287;28;20028;-44
2021/01/12 00:02:51;;;;;;;18.50;10.85;;;1.80;95.60;;;;;;5020368;28;20377;-46
2021/01/12 00:05:17;;;;;;;14.10;8.20;;;1.80;95.50;;;;;;5022721;28;20065;-46
2021/01/12 00:07:42;;;;;;;15.30;9.30;;;1.80;95.70;;;;;;5023907;28;20539;-47
2021/01/12 00:10:08;;;;;;;16.95;8.93;;;1.80;95.60;;;;;;5022279;28;20049;-45
2021/01/12 00:12:34;;;;;;;18.25;10.10;;;1.80;95.50;;;;;;5025963;28;20095;-46
2021/01/12 00:15:00;;;;;;;16.08;8.00;;;1.80;95.50;;;;;;5022001;28;20034;-44
2021/01/12 00:17:26;;;;;;;15.98;9.68;;;1.80;95.60;;;;;;5023581;28;20033;-44
2021/01/12 00:19:51;;;;;;;13.95;8.05;;;1.80;95.60;;;;;;5019469;28;20059;-46
2021/01/12 00:22:18;;;;;;;16.45;8.02;;;1.80;95.70;;;;;;5025034;28;20396;-47
2021/01/12 00:24:45;;;;;;;15.13;8.23;;;1.80;95.90;;;;;;5025101;28;20057;-45
2021/01/12 00:27:11;;;;;;;16.33;8.90;;;1.90;95.90;;;;;;5033051;28;20041;-48
2021/01/12 00:29:37;;;;;;;16.95;8.73;;;1.90;95.90;;;;;;5026192;28;20173;-47
2021/01/12 00:32:03;;;;;;;15.80;8.65;;;1.80;95.80;;;;;;5023845;28;21310;-44
2021/01/12 00:34:29;;;;;;;16.08;9.23;;;1.90;95.90;;;;;;5020237;28;20080;-49
2021/01/12 00:36:54;;;;;;;14.80;8.88;;;1.90;96.00;;;;;;5021559;28;20029;-47
2021/01/12 00:39:22;;;;;;;12.70;7.50;;;1.90;96.00;;;;;;5016106;28;20110;-45
2021/01/12 00:41:50;;;;;;;14.40;8.38;;;1.90;96.20;;;;;;5024831;28;20037;-50
2021/01/12 00:44:15;;;;;;;13.85;7.75;;;2.00;95.90;;;;;;5024980;28;20038;-47
2021/01/12 00:46:46;;;;;;;14.20;8.35;;;2.00;96.10;;;;;;5019053;28;20034;-49
2021/01/12 00:49:18;;;;;;;13.57;8.05;;;1.90;96.40;;;;;;5024256;28;20481;-47
2021/01/12 00:51:44;;;;;;;15.90;9.30;;;2.00;96.30;;;;;;5029226;28;20054;-45
2021/01/12 00:54:12;;;;;;;13.68;7.95;;;2.00;96.20;;;;;;5019023;28;20491;-50
2021/01/12 00:56:38;;;;;;;12.75;7.35;;;2.00;96.20;;;;;;5023036;28;20105;-48
2021/01/12 00:59:04;;;;;;;20.20;10.63;;;2.00;96.50;;;;;;5017671;28;20042;-49
2021/01/12 01:01:29;;;;;;;15.65;8.50;;;2.00;96.50;;;;;;5021477;28;20037;-46
2021/01/12 01:03:56;;;;;;;15.32;9.68;;;2.00;96.40;;;;;;5026904;28;20127;-46
2021/01/12 01:06:22;;;;;;;14.98;8.07;;;2.00;96.50;;;;;;5029664;28;20033;-46
2021/01/12 01:08:48;;;;;;;15.70;9.50;;;2.10;96.70;;;;;;5025474;28;20492;-49
2021/01/12 01:11:16;;;;;;;14.00;8.52;;;2.10;96.70;;;;;;5026988;28;20129;-48
2021/01/12 01:13:42;;;;;;;15.68;10.13;;;2.10;96.60;;;;;;5021808;28;20033;-47
2021/01/12 01:16:08;;;;;;;13.07;7.97;;;2.10;96.70;;;;;;5030439;28;20026;-44
2021/01/12 01:18:33;;;;;;;19.00;11.48;;;2.10;96.80;;;;;;5025859;28;20052;-43
2021/01/12 01:20:59;;;;;;;16.88;9.68;;;2.10;96.70;;;;;;5022340;28;20469;-46
2021/01/12 01:23:24;;;;;;;18.17;10.02;;;2.10;96.70;;;;;;5028899;28;20054;-45
2021/01/12 01:25:51;;;;;;;15.20;9.15;;;2.10;96.80;;;;;;5029892;28;20431;-46
2021/01/12 01:28:18;;;;;;;15.93;9.18;;;2.20;96.80;;;;;;5027872;28;20508;-45
2021/01/12 01:30:44;;;;;;;12.93;8.10;;;2.10;97.00;;;;;;5031086;28;20025;-45
2021/01/12 01:33:10;;;;;;;16.15;9.30;;;2.20;97.10;;;;;;5031209;28;20029;-44
2021/01/12 01:35:35;;;;;;;18.92;10.13;;;2.20;97.00;;;;;;5034128;28;20033;-45
2021/01/12 01:38:01;;;;;;;15.98;9.50;;;2.20;97.10;;;;;;5030261;28;20030;-48
2021/01/12 01:40:26;;;;;;;15.73;9.68;;;2.10;97.20;;;;;;5030329;28;20105;-44
2021/01/12 01:42:52;;;;;;;15.57;8.30;;;2.20;97.20;;;;;;5032280;28;20100;-44
2021/01/12 01:45:18;;;;;;;16.77;8.68;;;2.20;97.30;;;;;;5029966;28;20048;-44
2021/01/12 01:47:45;;;;;;;17.35;9.73;;;2.10;97.20;;;;;;5033185;28;20532;-46
2021/01/12 01:50:15;;;;;;;11.98;8.38;;;2.20;97.00;;;;;;5031973;28;20029;-48
2021/01/12 01:52:43;;;;;;;14.43;9.07;;;2.20;97.20;;;;;;5028210;28;20542;-45
2021/01/12 01:55:09;;;;;;;16.92;9.52;;;2.20;97.30;;;;;;5031934;28;20063;-47
2021/01/12 01:57:34;;;;;;;15.43;9.27;;;2.20;97.30;;;;;;5028379;28;20464;-45
2021/01/12 02:00:03;;;;;;;16.27;8.85;;;2.20;97.20;;;;;;5029810;28;20025;-45
2021/01/12 02:02:29;;;;;;;15.75;9.65;;;2.20;97.40;;;;;;5029798;28;20086;-47
2021/01/12 02:05:00;;;;;;;16.02;8.35;;;2.20;97.90;;;;;;5030873;28;20452;-46
2021/01/12 02:07:26;;;;;;;16.70;9.63;;;2.20;98.90;;;;;;5027751;28;20079;-49
2021/01/12 02:09:54;;;;;;;20.75;12.30;;;2.20;99.50;;;;;;5029577;28;20038;-45
2021/01/12 02:12:23;;;;;;;17.23;10.07;;;2.10;99.80;;;;;;5031869;28;20063;-46
2021/01/12 02:14:51;;;;;;;17.73;9.73;;;2.10;99.90;;;;;;5035229;28;20033;-45
2021/01/12 02:17:17;;;;;;;17.75;9.88;;;2.00;99.90;;;;;;5021936;28;20034;-45
2021/01/12 02:19:43;;;;;;;16.45;9.70;;;2.00;99.90;;;;;;5032089;28;20531;-49
2021/01/12 02:22:08;;;;;;;19.15;11.25;;;2.00;99.90;;;;;;5029254;28;20033;-47
2021/01/12 02:24:35;;;;;;;21.17;11.35;;;1.90;99.90;;;;;;5032948;28;20030;-46
2021/01/12 02:27:03;;;;;;;19.23;11.05;;;1.90;99.90;;;;;;5033482;28;20060;-46
2021/01/12 02:29:29;;;;;;;20.27;12.18;;;1.80;99.90;;;;;;5030016;28;20401;-44
2021/01/12 02:31:55;;;;;;;17.40;9.48;;;1.70;99.90;;;;;;5030485;28;20034;-46
2021/01/12 02:34:23;;;;;;;22.77;11.40;;;1.70;99.90;;;;;;5028725;28;20121;-45
2021/01/12 02:36:51;;;;;;;22.30;10.50;;;1.60;99.90;;;;;;5026360;28;20451;-44
2021/01/12 02:39:16;;;;;;;20.10;11.18;;;1.50;99.90;;;;;;5027012;28;20067;-47
2021/01/12 02:41:42;;;;;;;18.23;11.07;;;1.50;99.90;;;;;;5032738;28;20022;-46
2021/01/12 02:44:20;;;;;;;23.00;13.05;;;1.50;99.90;;;;;;5028166;28;20464;-45
2021/01/12 02:46:45;;;;;;;22.83;13.27;;;1.50;99.90;;;;;;5029522;28;20432;-44
2021/01/12 02:49:11;;;;;;;24.25;12.20;;;1.40;99.90;;;;;;5030943;28;20029;-45
2021/01/12 02:51:36;;;;;;;23.25;12.07;;;1.30;99.90;;;;;;5032221;28;20120;-44
2021/01/12 02:54:02;;;;;;;19.23;10.85;;;1.30;99.90;;;;;;5027947;28;21042;-45
2021/01/12 02:56:28;;;;;;;22.88;11.65;;;1.30;99.90;;;;;;5041584;28;20028;-48
2021/01/12 02:58:53;;;;;;;21.02;10.40;;;1.30;99.90;;;;;;5024925;28;20044;-46
2021/01/12 03:01:20;;;;;;;19.55;10.88;;;1.20;99.90;;;;;;5032214;28;20044;-47
2021/01/12 03:03:45;;;;;;;17.77;10.35;;;1.30;99.90;;;;;;5030769;28;20044;-46
2021/01/12 03:06:11;;;;;;;21.70;10.48;;;1.20;99.90;;;;;;5027946;28;20468;-49
2021/01/12 03:08:37;;;;;;;23.10;12.48;;;1.20;99.90;;;;;;5022087;28;20028;-44
2021/01/12 03:11:02;;;;;;;18.92;9.90;;;1.20;99.90;;;;;;5027738;28;20139;-44
2021/01/12 03:13:28;;;;;;;22.23;12.38;;;1.20;99.90;;;;;;5019624;28;20025;-47
2021/01/12 03:15:53;;;;;;;25.23;13.68;;;1.10;99.90;;;;;;5026527;28;20116;-47
2021/01/12 03:18:19;;;;;;;22.40;11.93;;;1.10;99.90;;;;;;5028640;28;20029;-46
2021/01/12 03:20:44;;;;;;;28.27;15.13;;;1.10;99.90;;;;;;5028878;28;20516;-44
2021/01/12 03:23:10;;;;;;;25.80;13.95;;;1.10;99.90;;;;;;5022986;28;20465;-46
2021/01/12 03:25:35;;;;;;;24.60;12.90;;;1.10;99.90;;;;;;5029031;28;20025;-51
2021/01/12 03:28:01;;;;;;;21.15;12.40;;;1.10;99.90;;;;;;5030661;28;20503;-45
2021/01/12 03:30:26;;;;;;;23.67;12.07;;;1.10;99.90;;;;;;5026023;28;20068;-47
2021/01/12 03:32:53;;;;;;;22.77;11.88;;;1.10;99.90;;;;;;5025854;28;20041;-44
2021/01/12 03:35:20;;;;;;;25.10;12.95;;;1.10;99.90;;;;;;5048953;28;20032;-43
2021/01/12 03:37:46;;;;;;;19.15;10.63;;;1.10;99.90;;;;;;5031892;28;20017;-45
2021/01/12 03:40:12;;;;;;;20.70;11.48;;;1.10;99.90;;;;;;5028997;28;20526;-48
2021/01/12 03:42:38;;;;;;;23.95;13.25;;;1.10;99.90;;;;;;5030426;28;20026;-46
2021/01/12 03:45:04;;;;;;;22.40;12.43;;;1.10;99.90;;;;;;5022355;28;20061;-47
2021/01/12 03:47:30;;;;;;;24.52;12.75;;;1.20;99.90;;;;;;5028405;28;20061;-50
2021/01/12 03:49:56;;;;;;;25.13;14.20;;;1.20;99.90;;;;;;5030286;28;20115;-44
2021/01/12 03:52:21;;;;;;;19.83;11.05;;;1.20;99.90;;;;;;5030808;28;20051;-44
2021/01/12 03:54:47;;;;;;;19.95;11.70;;;1.20;99.90;;;;;;5025484;28;20505;-46
2021/01/12 03:57:12;;;;;;;27.60;15.30;;;1.20;99.90;;;;;;5020302;28;20389;-44
2021/01/12 03:59:37;;;;;;;26.90;12.98;;;1.20;99.90;;;;;;5019823;28;20025;-46
2021/01/12 04:02:03;;;;;;;20.10;10.50;;;1.20;99.90;;;;;;5031089;28;20025;-44
2021/01/12 04:04:29;;;;;;;23.15;11.73;;;1.20;99.90;;;;;;5031529;28;20021;-44
2021/01/12 04:06:54;;;;;;;22.73;12.05;;;1.20;99.90;;;;;;5033925;28;20035;-43
2021/01/12 04:09:20;;;;;;;23.58;12.90;;;1.20;99.90;;;;;;5030472;28;20087;-45
2021/01/12 04:11:47;;;;;;;23.42;13.43;;;1.20;99.90;;;;;;5031474;28;20057;-46
2021/01/12 04:14:12;;;;;;;22.17;12.23;;;1.30;99.90;;;;;;5027607;28;20029;-47
2021/01/12 04:16:38;;;;;;;22.15;11.23;;;1.30;99.90;;;;;;5028294;28;20104;-45
2021/01/12 04:19:03;;;;;;;25.02;13.50;;;1.30;99.90;;;;;;5030560;28;20017;-46
2021/01/12 04:21:29;;;;;;;19.58;11.57;;;1.30;99.90;;;;;;5028168;28;20025;-46
2021/01/12 04:23:54;;;;;;;22.40;12.80;;;1.30;99.90;;;;;;5026249;28;20113;-43
2021/01/12 04:26:20;;;;;;;22.20;13.07;;;1.30;99.90;;;;;;5026490;28;20458;-48
2021/01/12 04:28:45;;;;;;;22.30;12.45;;;1.30;99.90;;;;;;5026061;28;20278;-44
2021/01/12 04:31:11;;;;;;;21.63;12.07;;;1.30;99.90;;;;;;5025411;28;20141;-45
2021/01/12 04:33:36;;;;;;;16.40;9.32;;;1.30;99.90;;;;;;5028338;28;20026;-46
2021/01/12 04:36:03;;;;;;;20.45;11.63;;;1.30;99.90;;;;;;5027591;28;20040;-45
2021/01/12 04:38:29;;;;;;;21.75;11.93;;;1.30;99.90;;;;;;5021414;28;20033;-50
2021/01/12 04:40:54;;;;;;;21.50;11.75;;;1.30;99.90;;;;;;5027556;28;20112;-45
2021/01/12 04:43:20;;;;;;;24.38;12.82;;;1.30;99.90;;;;;;5030277;28;20147;-46
2021/01/12 04:45:45;;;;;;;17.70;10.68;;;1.40;99.90;;;;;;5030236;28;20108;-46
2021/01/12 04:48:11;;;;;;;24.90;13.52;;;1.40;99.90;;;;;;5024738;28;20021;-44
2021/01/12 04:50:36;;;;;;;17.17;10.73;;;1.40;99.90;;;;;;5027593;28;20109;-46
2021/01/12 04:53:02;;;;;;;24.40;13.73;;;1.40;99.90;;;;;;5027065;28;20053;-50
2021/01/12 04:55:28;;;;;;;20.00;12.80;;;1.40;99.90;;;;;;5025762;28;20088;-49
2021/01/12 04:57:53;;;;;;;18.33;11.55;;;1.40;99.90;;;;;;5016847;28;20112;-46
2021/01/12 05:00:23;;;;;;;17.88;10.95;;;1.40;99.90;;;;;;5032569;28;20052;-46
2021/01/12 05:03:06;;;;;;;22.30;12.68;;;1.40;99.90;;;;;;5031129;28;20212;-46
2021/01/12 05:05:34;;;;;;;19.30;11.07;;;1.40;99.90;;;;;;5029195;28;20033;-44
2021/01/12 05:08:07;;;;;;;18.60;10.70;;;1.40;99.90;;;;;;5030665;28;20061;-46
2021/01/12 05:10:37;;;;;;;17.73;10.52;;;1.40;99.90;;;;;;5034120;28;20366;-46
2021/01/12 05:13:11;;;;;;;14.57;9.65;;;1.40;99.90;;;;;;5034421;28;20099;-45
2021/01/12 05:15:37;;;;;;;17.58;10.38;;;1.40;99.90;;;;;;5028218;28;20095;-44
2021/01/12 05:18:05;;;;;;;15.32;9.73;;;1.40;99.90;;;;;;5033075;28;20021;-46
2021/01/12 05:20:41;;;;;;;18.42;10.90;;;1.40;99.90;;;;;;5026161;28;20029;-45
2021/01/12 05:23:10;;;;;;;16.08;9.38;;;1.50;99.90;;;;;;5027850;28;20445;-43
2021/01/12 05:25:39;;;;;;;22.38;13.65;;;1.40;99.90;;;;;;5027674;28;20461;-52
2021/01/12 05:28:09;;;;;;;16.73;10.93;;;1.50;99.90;;;;;;5031007;28;20033;-48
2021/01/12 05:30:35;;;;;;;17.27;10.57;;;1.50;99.90;;;;;;5025397;28;20365;-46
2021/01/12 05:33:00;;;;;;;15.98;9.90;;;1.40;99.90;;;;;;5030477;28;20037;-47
2021/01/12 05:35:30;;;;;;;15.30;9.68;;;1.40;99.90;;;;;;5028267;28;20051;-46
2021/01/12 05:38:06;;;;;;;18.10;10.85;;;1.50;99.90;;;;;;5028847;28;20029;-48
2021/01/12 05:40:34;;;;;;;17.40;11.05;;;1.40;99.90;;;;;;5029159;28;20045;-48
2021/01/12 05:43:13;;;;;;;24.52;13.95;;;1.50;99.90;;;;;;5031702;28;20032;-46
2021/01/12 05:45:41;;;;;;;16.13;9.82;;;1.50;99.90;;;;;;5030746;28;20079;-44
2021/01/12 05:48:08;;;;;;;15.40;9.13;;;1.50;99.90;;;;;;5032316;28;20048;-45
2021/01/12 05:50:34;;;;;;;18.60;10.25;;;1.50;99.90;;;;;;5024780;28;20051;-43
2021/01/12 05:53:06;;;;;;;19.05;12.13;;;1.50;99.90;;;;;;5031328;28;20099;-46
2021/01/12 05:55:38;;;;;;;19.95;10.93;;;1.50;99.90;;;;;;5031346;28;20029;-50
2021/01/12 05:58:10;;;;;;;18.98;11.50;;;1.50;99.90;;;;;;5034824;28;20035;-46
2021/01/12 06:00:40;;;;;;;16.95;10.68;;;1.50;99.90;;;;;;5031850;28;20075;-44
2021/01/12 06:03:09;;;;;;;18.02;9.75;;;1.50;99.90;;;;;;5032952;28;20033;-50
2021/01/12 06:05:36;;;;;;;20.08;12.00;;;1.50;99.90;;;;;;5043669;28;20393;-44
2021/01/12 06:08:01;;;;;;;15.40;9.63;;;1.50;99.90;;;;;;5035498;28;20366;-47
2021/01/12 06:10:29;;;;;;;17.48;10.90;;;1.50;99.90;;;;;;5022484;28;20036;-42
2021/01/12 06:13:00;;;;;;;17.50;10.40;;;1.50;99.90;;;;;;5034233;28;20044;-45
2021/01/12 06:15:27;;;;;;;17.17;9.70;;;1.50;99.90;;;;;;5030362;28;20041;-43
2021/01/12 06:18:03;;;;;;;17.92;10.07;;;1.50;99.90;;;;;;5028054;28;20481;-46
2021/01/12 06:20:43;;;;;;;19.85;11.90;;;1.50;99.90;;;;;;5025041;28;20037;-43
2021/01/12 06:23:17;;;;;;;16.30;9.38;;;1.50;99.90;;;;;;5024747;28;20057;-45
2021/01/12 06:25:44;;;;;;;14.35;9.30;;;1.50;99.90;;;;;;5025970;28;20061;-45
2021/01/12 06:28:09;;;;;;;15.82;10.40;;;1.50;99.90;;;;;;5035611;28;20029;-44
2021/01/12 06:30:35;;;;;;;18.33;10.85;;;1.50;99.90;;;;;;5030480;28;20032;-46
2021/01/12 06:33:02;;;;;;;17.88;11.05;;;1.60;99.90;;;;;;5025965;28;20134;-47
2021/01/12 06:35:37;;;;;;;18.63;10.73;;;1.60;99.90;;;;;;5033133;28;20036;-44
2021/01/12 06:38:06;;;;;;;17.48;11.05;;;1.60;99.90;;;;;;5029106;28;20029;-47
2021/01/12 06:40:34;;;;;;;14.70;9.50;;;1.60;99.90;;;;;;5042561;28;20178;-46
2021/01/12 06:43:00;;;;;;;14.63;8.68;;;1.60;99.90;;;;;;5030651;28;20362;-45
2021/01/12 06:45:27;;;;;;;16.42;10.60;;;1.60;99.90;;;;;;5032203;28;20326;-49
2021/01/12 06:47:54;;;;;;;18.77;11.93;;;1.60;99.90;;;;;;5032853;28;20167;-44
2021/01/12 06:50:23;;;;;;;13.88;8.52;;;1.60;99.90;;;;;;5029842;28;20078;-46
2021/01/12 06:52:50;;;;;;;13.95;8.98;;;1.60;99.90;;;;;;5043284;28;20405;-44
2021/01/12 06:55:18;;;;;;;15.00;9.50;;;1.60;99.90;;;;;;5032578;28;20045;-49
2021/01/12 06:57:45;;;;;;;15.25;10.15;;;1.60;99.90;;;;;;5022933;28;20072;-45
2021/01/12 07:00:11;;;;;;;13.88;9.13;;;1.60;99.90;;;;;;5019839;28;20033;-44
2021/01/12 07:02:36;;;;;;;15.07;9.25;;;1.70;99.90;;;;;;5037049;28;20030;-46
2021/01/12 07:05:05;;;;;;;15.23;9.20;;;1.70;99.90;;;;;;5032229;28;20034;-46
2021/01/12 07:07:51;;;;;;;21.90;13.45;;;1.70;99.90;;;;;;5031953;28;20147;-44
2021/01/12 07:10:22;;;;;;;13.68;8.60;;;1.70;99.90;;;;;;5023968;28;20041;-46
2021/01/12 07:12:48;;;;;;;14.88;8.82;;;1.70;99.90;;;;;;5029213;28;20076;-44
2021/01/12 07:15:16;;;;;;;15.85;9.85;;;1.70;99.90;;;;;;5023633;28;20469;-44
2021/01/12 07:17:45;;;;;;;20.05;12.18;;;1.70;99.90;;;;;;5020771;28;20040;-46
2021/01/12 07:20:24;;;;;;;16.15;9.88;;;1.70;99.90;;;;;;5027758;28;20385;-43
2021/01/12 07:22:56;;;;;;;14.30;9.07;;;1.70;99.90;;;;;;5027769;28;20033;-44
2021/01/12 07:25:25;;;;;;;15.32;9.65;;;1.80;99.90;;;;;;5024175;28;20044;-44
2021/01/12 07:28:17;;;;;;;20.27;12.57;;;1.80;99.90;;;;;;5027958;28;20056;-46
2021/01/12 07:30:53;;;;;;;14.35;9.55;;;1.80;99.90;;;;;;5027667;28;20833;-44
2021/01/12 07:33:27;;;;;;;11.18;7.50;;;1.80;99.90;;;;;;5024674;28;20025;-48
2021/01/12 07:35:58;;;;;;;12.45;7.75;;;1.80;99.90;;;;;;5026317;28;20037;-44
2021/01/12 07:38:29;;;;;;;15.40;8.57;;;1.80;99.90;;;;;;5028626;28;20056;-44
2021/01/12 07:40:57;;;;;;;16.73;10.82;;;1.80;99.90;;;;;;5025155;28;20021;-46
2021/01/12 07:43:24;;;;;;;10.68;7.55;;;1.80;99.90;;;;;;5023254;28;20389;-44
2021/01/12 07:45:52;;;;;;;14.48;9.73;;;1.90;99.90;;;;;;5024557;28;21109;-46
2021/01/12 07:48:17;;;;;;;13.88;8.30;;;1.80;99.90;;;;;;5023809;28;20036;-44
2021/01/12 07:50:44;;;;;;;12.93;7.22;;;1.80;99.90;;;;;;5026524;28;20474;-44
2021/01/12 07:53:10;;;;;;;12.57;7.68;;;1.80;99.90;;;;;;5017480;28;20045;-46
2021/01/12 07:55:40;;;;;;;12.18;7.18;;;1.80;99.90;;;;;;5027718;28;20132;-45
2021/01/12 07:58:06;;;;;;;13.60;9.20;;;1.90;99.90;;;;;;5029431;28;20370;-46
2021/01/12 08:00:32;;;;;;;12.32;8.70;;;1.90;99.90;;;;;;5022796;28;20034;-44
2021/01/12 08:02:58;;;;;;;12.32;9.13;;;1.90;99.90;;;;;;5029953;28;20476;-44
2021/01/12 08:05:25;;;;;;;12.07;7.72;;;1.90;99.90;;;;;;5026212;28;20029;-46
2021/01/12 08:08:09;;;;;;;12.05;7.40;;;1.90;99.90;;;;;;5030826;28;20025;-45
2021/01/12 08:10:37;;;;;;;11.38;6.88;;;1.90;99.90;;;;;;5027344;28;20041;-46
2021/01/12 08:13:08;;;;;;;10.90;6.18;;;2.00;99.90;;;;;;5028116;28;20187;-47
2021/01/12 08:15:36;;;;;;;12.13;7.70;;;2.00;99.90;;;;;;5027046;28;20029;-47
2021/01/12 08:18:03;;;;;;;9.85;6.90;;;2.00;99.90;;;;;;5023726;28;20028;-43
2021/01/12 08:20:30;;;;;;;11.10;7.43;;;2.00;99.90;;;;;;5025638;28;20030;-45
2021/01/12 08:22:56;;;;;;;9.50;6.68;;;2.00;99.90;;;;;;5029561;28;20413;-48
2021/01/12 08:25:23;;;;;;;11.52;6.75;;;2.00;99.90;;;;;;5027129;28;20100;-46
2021/01/12 08:28:00;;;;;;;9.75;5.90;;;2.00;99.90;;;;;;5026496;28;20029;-44
2021/01/12 08:30:28;;;;;;;8.77;6.68;;;2.10;99.90;;;;;;5027447;28;20073;-44
2021/01/12 08:33:12;;;;;;;8.20;5.57;;;2.10;99.90;;;;;;5029704;28;20044;-46
2021/01/12 08:35:41;;;;;;;9.45;5.82;;;2.10;99.90;;;;;;5030366;28;20055;-44
2021/01/12 08:38:10;;;;;;;7.10;5.10;;;2.10;99.90;;;;;;5032486;28;20044;-44
2021/01/12 08:40:36;;;;;;;11.90;7.45;;;2.10;99.90;;;;;;5030196;28;20080;-46
2021/01/12 08:43:01;;;;;;;12.68;8.55;;;2.10;99.90;;;;;;5033571;28;20075;-46
2021/01/12 08:45:32;;;;;;;10.20;6.22;;;2.10;99.90;;;;;;5029172;28;20484;-45
2021/01/12 08:48:09;;;;;;;8.82;5.63;;;2.20;99.90;;;;;;5029366;28;20033;-48
2021/01/12 08:50:34;;;;;;;10.70;6.60;;;2.20;99.90;;;;;;5023918;28;20426;-46
2021/01/12 08:53:00;;;;;;;10.90;6.95;;;2.20;99.90;;;;;;5031866;28;20105;-46
2021/01/12 08:55:25;;;;;;;6.47;5.10;;;2.20;99.90;;;;;;5031932;28;20030;-47
2021/01/12 08:57:55;;;;;;;10.48;6.45;;;2.20;99.90;;;;;;5028227;28;20021;-46
2021/01/12 09:00:36;;;;;;;7.32;5.47;;;2.20;99.90;;;;;;5032104;28;20032;-48
2021/01/12 09:03:04;;;;;;;7.55;5.22;;;2.20;99.90;;;;;;5026972;28;20021;-50
2021/01/12 09:05:37;;;;;;;7.88;5.68;;;2.20;99.90;;;;;;5029467;28;20095;-44
2021/01/12 09:08:04;;;;;;;6.63;4.60;;;2.30;99.90;;;;;;5029639;28;20041;-47
2021/01/12 09:10:31;;;;;;;9.52;6.70;;;2.20;99.90;;;;;;5030015;28;20121;-46
2021/01/12 09:12:56;;;;;;;8.18;5.28;;;2.30;99.90;;;;;;5024712;28;20645;-45
2021/01/12 09:15:30;;;;;;;7.65;4.45;;;2.30;99.90;;;;;;5029174;28;20029;-42
2021/01/12 09:18:17;;;;;;;6.13;4.15;;;2.30;99.90;;;;;;5036913;28;20030;-45
2021/01/12 09:20:43;;;;;;;6.05;4.32;;;2.30;99.90;;;;;;5027955;28;20500;-49
2021/01/12 09:23:13;;;;;;;6.60;4.10;;;2.30;99.90;;;;;;5043347;28;20025;-45
2021/01/12 09:25:52;;;;;;;5.75;4.03;;;2.30;99.90;;;;;;5032091;28;20469;-49
2021/01/12 09:28:23;;;;;;;6.75;4.70;;;2.30;99.90;;;;;;5022602;28;20029;-44
2021/01/12 09:30:48;;;;;;;6.65;4.65;;;2.30;99.90;;;;;;5032866;28;21097;-46
2021/01/12 09:33:23;;;;;;;5.80;3.95;;;2.30;99.90;;;;;;5033429;28;20026;-44
2021/01/12 09:36:01;;;;;;;5.93;4.00;;;2.30;99.90;;;;;;5032334;28;20033;-42
2021/01/12 09:38:44;;;;;;;6.90;4.65;;;2.40;99.90;;;;;;5032526;28;20029;-45
2021/01/12 09:41:10;;;;;;;5.88;3.47;;;2.40;99.90;;;;;;5032480;28;20037;-47
2021/01/12 09:43:37;;;;;;;5.10;3.47;;;2.40;99.90;;;;;;5031859;28;20423;-44
2021/01/12 09:46:04;;;;;;;5.82;3.90;;;2.40;99.90;;;;;;5032023;28;20029;-44
2021/01/12 09:48:31;;;;;;;5.63;4.00;;;2.40;99.90;;;;;;5033302;28;20104;-45
2021/01/12 09:50:56;;;;;;;22.30;6.03;;;2.40;99.90;;;;;;5030788;28;20037;-44
2021/01/12 09:53:23;;;;;;;21.30;7.28;;;2.40;99.90;;;;;;5027883;28;20036;-48
2021/01/12 09:55:48;;;;;;;11.18;3.90;;;2.40;99.90;;;;;;5029321;28;20116;-49
2021/01/12 09:58:14;;;;;;;5.53;3.33;;;2.50;99.90;;;;;;5030857;28;20101;-44
2021/01/12 10:00:39;;;;;;;5.03;3.78;;;2.50;99.90;;;;;;5031002;28;20116;-44
2021/01/12 10:03:05;;;;;;;5.43;3.72;;;2.50;99.90;;;;;;5028687;28;20036;-44
2021/01/12 10:05:31;;;;;;;5.50;3.28;;;2.50;99.90;;;;;;5024554;28;20068;-46
2021/01/12 10:07:56;;;;;;;5.28;3.60;;;2.50;99.90;;;;;;5024786;28;20032;-45
2021/01/12 10:10:22;;;;;;;5.03;3.45;;;2.50;99.90;;;;;;5029044;28;20488;-44
2021/01/12 10:12:47;;;;;;;5.53;4.40;;;2.50;99.90;;;;;;5030555;28;20041;-42
2021/01/12 10:15:13;;;;;;;4.35;3.28;;;2.60;99.90;;;;;;5031160;28;20029;-45
2021/01/12 10:17:39;;;;;;;4.22;3.28;;;2.60;99.90;;;;;;5032023;28;20025;-47
2021/01/12 10:20:06;;;;;;;4.38;2.78;;;2.60;99.90;;;;;;5029789;28;20025;-45
2021/01/12 10:22:31;;;;;;;2.88;2.47;;;2.50;99.90;;;;;;5028535;28;20036;-42
2021/01/12 10:24:59;;;;;;;3.55;2.85;;;2.50;99.90;;;;;;5030082;28;20033;-45
2021/01/12 10:27:25;;;;;;;5.00;3.15;;;2.60;99.90;;;;;;5027566;28;20025;-47
2021/01/12 10:29:51;;;;;;;4.50;3.20;;;2.60;99.90;;;;;;5023475;28;20107;-43
2021/01/12 10:32:16;;;;;;;5.07;3.28;;;2.60;99.90;;;;;;5027792;28;20074;-43
2021/01/12 10:34:43;;;;;;;3.63;2.95;;;2.60;99.90;;;;;;5028129;28;20166;-47
2021/01/12 10:37:13;;;;;;;4.53;2.92;;;2.60;99.90;;;;;;5027722;28;20057;-42
2021/01/12 10:39:38;;;;;;;4.63;3.13;;;2.60;99.90;;;;;;5025026;28;20045;-45
2021/01/12 10:42:05;;;;;;;4.05;2.97;;;2.60;99.90;;;;;;5028909;28;20490;-44
2021/01/12 10:44:31;;;;;;;3.35;2.65;;;2.60;99.90;;;;;;5026626;28;20029;-44
2021/01/12 10:46:56;;;;;;;4.50;3.00;;;2.70;99.90;;;;;;5018441;28;20400;-45
2021/01/12 10:49:22;;;;;;;4.65;3.67;;;2.70;99.90;;;;;;5031227;28;20034;-43
2021/01/12 10:51:59;;;;;;;3.58;2.97;;;2.70;99.90;;;;;;5014437;28;20520;-44
2021/01/12 10:54:25;;;;;;;4.57;3.40;;;2.60;99.90;;;;;;5030910;28;20041;-42
2021/01/12 10:56:51;;;;;;;3.55;3.05;;;2.60;99.90;;;;;;5030343;28;20152;-42
2021/01/12 10:59:16;;;;;;;4.20;2.95;;;2.60;99.90;;;;;;5030261;28;20112;-43
2021/01/12 11:01:42;;;;;;;4.72;3.97;;;2.60;99.90;;;;;;5021511;28;20026;-44
2021/01/12 11:04:07;;;;;;;6.45;4.72;;;2.60;99.90;;;;;;5030151;28;20029;-41
2021/01/12 11:06:36;;;;;;;4.88;3.90;;;2.60;99.90;;;;;;5031772;28;20044;-46
2021/01/12 11:09:03;;;;;;;4.70;3.10;;;2.70;99.90;;;;;;5030505;28;20072;-43
2021/01/12 11:11:34;;;;;;;4.50;3.15;;;2.70;99.90;;;;;;5030892;28;20021;-43
2021/01/12 11:14:03;;;;;;;4.68;3.03;;;2.70;99.90;;;;;;5028100;28;20569;-44
2021/01/12 11:16:40;;;;;;;6.60;4.53;;;2.70;99.90;;;;;;5031147;28;20013;-44
2021/01/12 11:19:06;;;;;;;6.07;3.65;;;2.80;99.90;;;;;;5026533;28;20040;-45
2021/01/12 11:21:32;;;;;;;5.10;3.53;;;2.80;99.90;;;;;;5027517;28;20022;-45
2021/01/12 11:23:58;;;;;;;4.90;3.25;;;2.80;99.90;;;;;;5028786;28;20091;-45
2021/01/12 11:26:30;;;;;;;2.85;2.50;;;2.90;99.90;;;;;;5027886;28;20087;-44
2021/01/12 11:28:56;;;;;;;5.40;3.67;;;2.90;99.90;;;;;;5029192;28;20489;-49
2021/01/12 11:31:22;;;;;;;4.68;3.35;;;3.00;99.90;;;;;;5028212;28;20028;-48
2021/01/12 11:33:47;;;;;;;4.68;3.15;;;3.00;99.90;;;;;;5026280;28;20500;-48
2021/01/12 11:36:14;;;;;;;3.58;2.85;;;3.10;99.90;;;;;;5029577;28;20034;-44
2021/01/12 11:38:39;;;;;;;9.32;5.43;;;3.10;99.90;;;;;;5025427;28;20511;-42
2021/01/12 11:41:08;;;;;;;6.00;3.97;;;3.10;99.90;;;;;;5026850;28;20037;-44
2021/01/12 11:43:34;;;;;;;6.35;3.75;;;3.10;99.90;;;;;;5030832;28;20040;-43
2021/01/12 11:45:59;;;;;;;5.03;3.53;;;3.10;99.90;;;;;;5026587;28;20041;-50
2021/01/12 11:48:25;;;;;;;3.55;2.95;;;3.10;99.90;;;;;;5030390;28;20113;-47
2021/01/12 11:50:50;;;;;;;4.15;2.83;;;3.10;99.90;;;;;;5020418;28;20057;-48
2021/01/12 11:53:15;;;;;;;5.63;3.83;;;3.10;99.90;;;;;;5026236;28;20041;-46
2021/01/12 11:55:41;;;;;;;6.15;3.58;;;3.10;99.90;;;;;;5026640;28;20033;-46
2021/01/12 11:58:07;;;;;;;4.30;3.08;;;3.10;99.90;;;;;;5029319;28;20035;-46
2021/01/12 12:00:32;;;;;;;4.85;3.15;;;3.10;99.90;;;;;;5018279;28;20056;-43
2021/01/12 12:02:58;;;;;;;4.63;3.55;;;3.10;99.90;;;;;;5019670;28;20420;-44
2021/01/12 12:05:23;;;;;;;5.13;3.30;;;3.10;99.90;;;;;;5027475;28;20077;-47
2021/01/12 12:07:49;;;;;;;5.72;3.10;;;3.10;99.90;;;;;;5026500;28;20037;-44
2021/01/12 12:10:14;;;;;;;6.47;3.70;;;3.10;99.90;;;;;;5020290;28;20032;-45
2021/01/12 12:12:40;;;;;;;3.33;2.60;;;3.20;99.90;;;;;;5028953;28;20049;-46
2021/01/12 12:15:06;;;;;;;3.15;2.38;;;3.10;99.90;;;;;;5027700;28;20041;-44
2021/01/12 12:17:31;;;;;;;4.60;3.20;;;3.10;99.90;;;;;;5029539;28;20468;-44
2021/01/12 12:19:57;;;;;;;4.53;3.10;;;3.10;99.90;;;;;;5029913;28;20025;-44
2021/01/12 12:22:23;;;;;;;3.80;2.83;;;3.10;99.90;;;;;;5029696;28;20025;-43
2021/01/12 12:24:48;;;;;;;5.07;3.22;;;3.10;99.90;;;;;;5020312;28;20034;-46
2021/01/12 12:27:19;;;;;;;5.35;3.58;;;3.10;99.90;;;;;;5022982;28;20539;-44
2021/01/12 12:29:45;;;;;;;5.45;3.45;;;3.10;99.90;;;;;;5029958;28;20083;-46
2021/01/12 12:32:10;;;;;;;5.30;3.40;;;3.10;99.90;;;;;;5028897;28;20021;-44
2021/01/12 12:34:36;;;;;;;6.72;3.42;;;3.10;99.90;;;;;;5026652;28;20078;-44
2021/01/12 12:37:01;;;;;;;5.13;3.10;;;3.10;99.90;;;;;;5025724;28;20056;-44
2021/01/12 12:39:27;;;;;;;4.95;3.22;;;3.10;99.90;;;;;;5026967;28;20022;-48
2021/01/12 12:41:53;;;;;;;4.60;3.40;;;3.20;99.90;;;;;;5027536;28;20076;-43
2021/01/12 12:44:18;;;;;;;3.90;2.88;;;3.20;99.90;;;;;;5026371;28;20026;-42
2021/01/12 12:46:45;;;;;;;4.97;3.58;;;3.20;99.90;;;;;;5028935;28;20029;-48